sensor_id;sensor_type;location;lat;lon;timestamp;P1;durP1;ratioP1;P2;durP2;ratioP2
5898;SDS011;2975;50.956;6.962;2024-01-10T00:01:16;13.37;;;6.37;;
5898;SDS011;2975;50.956;6.962;2024-01-10T00:03:42;14.87;;;7.20;;
5898;SDS011;2975;50.956;6.962;2024-01-10T00:06:08;16.80;;;7.10;;
5898;SDS011;2975;50.956;6.962;2024-01-10T00:08:34;11.97;;;6.83;;
5898;SDS011;2975;50.956;6.962;2024-01-10T00:11:00;13.37;;;7.07;;
5898;SDS011;2975;50.956;6.962;2024-01-10T00:13:25;11.10;;;6.57;;
5898;SDS011;2975;50.956;6.962;2024-01-10T00:15:52;15.83;;;6.80;;
5898;SDS011;2975;50.956;6.962;2024-01-10T00:18:20;11.07;;;6.40;;
5898;SDS011;2975;50.956;6.962;2024-01-10T00:20:46;16.20;;;7.57;;
5898;SDS011;2975;50.956;6.962;2024-01-10T00:23:12;15.87;;;6.40;;
5898;SDS011;2975;50.956;6.962;2024-01-10T00:25:38;15.33;;;7.33;;
5898;SDS011;2975;50.956;6.962;2024-01-10T00:28:04;15.23;;;6.30;;
5898;SDS011;2975;50.956;6.962;2024-01-10T00:30:30;12.77;;;6.40;;
5898;SDS011;2975;50.956;6.962;2024-01-10T00:32:55;12.83;;;6.23;;
5898;SDS011;2975;50.956;6.962;2024-01-10T00:35:21;11.03;;;6.03;;
5898;SDS011;2975;50.956;6.962;2024-01-10T00:37:47;11.77;;;5.80;;
5898;SDS011;2975;50.956;6.962;2024-01-10T00:40:12;10.50;;;6.07;;
5898;SDS011;2975;50.956;6.962;2024-01-10T00:42:38;14.03;;;6.23;;
5898;SDS011;2975;50.956;6.962;2024-01-10T00:45:04;11.10;;;6.00;;
5898;SDS011;2975;50.956;6.962;2024-01-10T00:47:30;13.33;;;6.00;;
5898;SDS011;2975;50.956;6.962;2024-01-10T00:49:55;13.93;;;6.07;;
5898;SDS011;2975;50.956;6.962;2024-01-10T00:52:21;10.53;;;6.17;;
5898;SDS011;2975;50.956;6.962;2024-01-10T00:54:47;10.23;;;5.50;;
5898;SDS011;2975;50.956;6.962;2024-01-10T00:57:12;10.60;;;5.63;;
5898;SDS011;2975;50.956;6.962;2024-01-10T00:59:38;11.03;;;6.87;;
5898;SDS011;2975;50.956;6.962;2024-01-10T01:02:04;8.63;;;5.83;;
5898;SDS011;2975;50.956;6.962;2024-01-10T01:04:29;11.13;;;6.10;;
5898;SDS011;2975;50.956;6.962;2024-01-10T01:06:55;14.30;;;6.30;;
5898;SDS011;2975;50.956;6.962;2024-01-10T01:09:20;10.90;;;6.07;;
5898;SDS011;2975;50.956;6.962;2024-01-10T01:11:46;10.20;;;5.60;;
5898;SDS011;2975;50.956;6.962;2024-01-10T01:14:12;11.33;;;5.93;;
5898;SDS011;2975;50.956;6.962;2024-01-10T01:16:37;11.73;;;6.63;;
5898;SDS011;2975;50.956;6.962;2024-01-10T01:19:03;10.70;;;5.93;;
5898;SDS011;2975;50.956;6.962;2024-01-10T01:21:28;15.43;;;5.73;;
5898;SDS011;2975;50.956;6.962;2024-01-10T01:23:54;11.83;;;5.73;;
5898;SDS011;2975;50.956;6.962;2024-01-10T01:26:20;13.00;;;6.03;;
5898;SDS011;2975;50.956;6.962;2024-01-10T01:28:45;11.80;;;6.20;;
5898;SDS011;2975;50.956;6.962;2024-01-10T01:31:11;10.77;;;5.27;;
5898;SDS011;2975;50.956;6.962;2024-01-10T01:33:36;11.30;;;5.03;;
5898;SDS011;2975;50.956;6.962;2024-01-10T01:36:04;10.57;;;5.23;;
5898;SDS011;2975;50.956;6.962;2024-01-10T01:38:30;10.53;;;5.73;;
5898;SDS011;2975;50.956;6.962;2024-01-10T01:40:56;11.33;;;5.80;;
5898;SDS011;2975;50.956;6.962;2024-01-10T01:43:22;10.97;;;5.00;;
5898;SDS011;2975;50.956;6.962;2024-01-10T01:45:50;11.97;;;5.13;;
5898;SDS011;2975;50.956;6.962;2024-01-10T01:48:17;9.63;;;5.50;;
5898;SDS011;2975;50.956;6.962;2024-01-10T01:50:44;11.37;;;5.73;;
5898;SDS011;2975;50.956;6.962;2024-01-10T01:53:15;12.83;;;5.87;;
5898;SDS011;2975;50.956;6.962;2024-01-10T01:55:42;9.23;;;4.83;;
5898;SDS011;2975;50.956;6.962;2024-01-10T01:58:09;9.53;;;5.43;;
5898;SDS011;2975;50.956;6.962;2024-01-10T02:00:35;8.97;;;5.63;;
5898;SDS011;2975;50.956;6.962;2024-01-10T02:03:02;14.43;;;6.67;;
5898;SDS011;2975;50.956;6.962;2024-01-10T02:05:28;13.20;;;6.07;;
5898;SDS011;2975;50.956;6.962;2024-01-10T02:07:53;10.77;;;5.73;;
5898;SDS011;2975;50.956;6.962;2024-01-10T02:10:20;14.87;;;5.87;;
5898;SDS011;2975;50.956;6.962;2024-01-10T02:12:46;14.93;;;5.73;;
5898;SDS011;2975;50.956;6.962;2024-01-10T02:15:12;11.13;;;5.27;;
5898;SDS011;2975;50.956;6.962;2024-01-10T02:17:39;9.93;;;5.37;;
5898;SDS011;2975;50.956;6.962;2024-01-10T02:20:08;13.33;;;6.53;;
5898;SDS011;2975;50.956;6.962;2024-01-10T02:22:38;15.27;;;7.63;;
5898;SDS011;2975;50.956;6.962;2024-01-10T02:25:07;17.47;;;7.53;;
5898;SDS011;2975;50.956;6.962;2024-01-10T02:27:34;16.57;;;8.13;;
5898;SDS011;2975;50.956;6.962;2024-01-10T02:30:02;18.00;;;8.40;;
5898;SDS011;2975;50.956;6.962;2024-01-10T02:32:28;17.60;;;7.53;;
5898;SDS011;2975;50.956;6.962;2024-01-10T02:34:54;13.13;;;7.27;;
5898;SDS011;2975;50.956;6.962;2024-01-10T02:37:20;15.87;;;8.13;;
5898;SDS011;2975;50.956;6.962;2024-01-10T02:39:45;16.30;;;7.77;;
5898;SDS011;2975;50.956;6.962;2024-01-10T02:42:11;13.10;;;6.33;;
5898;SDS011;2975;50.956;6.962;2024-01-10T02:44:37;13.70;;;6.87;;
5898;SDS011;2975;50.956;6.962;2024-01-10T02:47:02;15.37;;;7.83;;
5898;SDS011;2975;50.956;6.962;2024-01-10T02:49:28;15.63;;;7.23;;
5898;SDS011;2975;50.956;6.962;2024-01-10T02:51:54;14.80;;;7.13;;
5898;SDS011;2975;50.956;6.962;2024-01-10T02:54:19;12.90;;;6.63;;
5898;SDS011;2975;50.956;6.962;2024-01-10T02:56:45;12.30;;;6.23;;
5898;SDS011;2975;50.956;6.962;2024-01-10T02:59:11;11.23;;;6.07;;
5898;SDS011;2975;50.956;6.962;2024-01-10T03:01:36;14.77;;;6.77;;
5898;SDS011;2975;50.956;6.962;2024-01-10T03:04:02;9.40;;;6.00;;
5898;SDS011;2975;50.956;6.962;2024-01-10T03:06:28;15.03;;;6.83;;
5898;SDS011;2975;50.956;6.962;2024-01-10T03:08:54;12.33;;;6.73;;
5898;SDS011;2975;50.956;6.962;2024-01-10T03:11:20;12.93;;;6.33;;
5898;SDS011;2975;50.956;6.962;2024-01-10T03:13:46;12.23;;;6.00;;
5898;SDS011;2975;50.956;6.962;2024-01-10T03:16:12;17.40;;;6.93;;
5898;SDS011;2975;50.956;6.962;2024-01-10T03:18:38;11.50;;;6.20;;
5898;SDS011;2975;50.956;6.962;2024-01-10T03:21:04;16.13;;;7.10;;
5898;SDS011;2975;50.956;6.962;2024-01-10T03:23:29;13.27;;;5.80;;
5898;SDS011;2975;50.956;6.962;2024-01-10T03:25:58;14.27;;;6.40;;
5898;SDS011;2975;50.956;6.962;2024-01-10T03:28:23;13.30;;;6.27;;
5898;SDS011;2975;50.956;6.962;2024-01-10T03:30:49;13.47;;;6.53;;
5898;SDS011;2975;50.956;6.962;2024-01-10T03:33:15;13.83;;;6.40;;
5898;SDS011;2975;50.956;6.962;2024-01-10T03:35:41;15.07;;;6.30;;
5898;SDS011;2975;50.956;6.962;2024-01-10T03:38:07;12.40;;;6.00;;
5898;SDS011;2975;50.956;6.962;2024-01-10T03:40:33;11.07;;;5.60;;
5898;SDS011;2975;50.956;6.962;2024-01-10T03:42:58;11.37;;;5.50;;
5898;SDS011;2975;50.956;6.962;2024-01-10T03:45:24;14.20;;;6.30;;
5898;SDS011;2975;50.956;6.962;2024-01-10T03:47:50;12.80;;;6.13;;
5898;SDS011;2975;50.956;6.962;2024-01-10T03:50:19;9.23;;;5.23;;
5898;SDS011;2975;50.956;6.962;2024-01-10T03:52:45;11.90;;;6.20;;
5898;SDS011;2975;50.956;6.962;2024-01-10T03:55:12;11.33;;;5.67;;
5898;SDS011;2975;50.956;6.962;2024-01-10T03:57:38;9.70;;;5.63;;
5898;SDS011;2975;50.956;6.962;2024-01-10T04:00:04;15.10;;;6.77;;
5898;SDS011;2975;50.956;6.962;2024-01-10T04:02:31;14.10;;;6.00;;
5898;SDS011;2975;50.956;6.962;2024-01-10T04:04:57;8.90;;;5.37;;
5898;SDS011;2975;50.956;6.962;2024-01-10T04:07:23;10.93;;;5.93;;
5898;SDS011;2975;50.956;6.962;2024-01-10T04:09:49;11.67;;;6.67;;
5898;SDS011;2975;50.956;6.962;2024-01-10T04:12:14;11.63;;;5.63;;
5898;SDS011;2975;50.956;6.962;2024-01-10T04:14:40;9.47;;;6.00;;
5898;SDS011;2975;50.956;6.962;2024-01-10T04:17:05;11.83;;;5.67;;
5898;SDS011;2975;50.956;6.962;2024-01-10T04:19:33;9.83;;;5.67;;
5898;SDS011;2975;50.956;6.962;2024-01-10T04:21:59;13.03;;;5.73;;
5898;SDS011;2975;50.956;6.962;2024-01-10T04:24:24;8.97;;;5.80;;
5898;SDS011;2975;50.956;6.962;2024-01-10T04:26:50;12.20;;;5.70;;
5898;SDS011;2975;50.956;6.962;2024-01-10T04:29:16;9.43;;;5.23;;
5898;SDS011;2975;50.956;6.962;2024-01-10T04:31:41;16.50;;;6.17;;
5898;SDS011;2975;50.956;6.962;2024-01-10T04:34:07;12.53;;;6.33;;
5898;SDS011;2975;50.956;6.962;2024-01-10T04:36:33;14.23;;;7.30;;
5898;SDS011;2975;50.956;6.962;2024-01-10T04:38:59;11.30;;;6.10;;
5898;SDS011;2975;50.956;6.962;2024-01-10T04:41:24;10.60;;;5.87;;
5898;SDS011;2975;50.956;6.962;2024-01-10T04:43:51;12.83;;;6.27;;
5898;SDS011;2975;50.956;6.962;2024-01-10T04:46:16;9.70;;;5.30;;
5898;SDS011;2975;50.956;6.962;2024-01-10T04:48:42;14.03;;;6.03;;
5898;SDS011;2975;50.956;6.962;2024-01-10T04:51:08;14.57;;;6.17;;
5898;SDS011;2975;50.956;6.962;2024-01-10T04:53:34;13.63;;;5.50;;
5898;SDS011;2975;50.956;6.962;2024-01-10T04:55:59;12.77;;;6.43;;
5898;SDS011;2975;50.956;6.962;2024-01-10T04:58:25;12.10;;;6.20;;
5898;SDS011;2975;50.956;6.962;2024-01-10T05:00:50;11.47;;;6.07;;
5898;SDS011;2975;50.956;6.962;2024-01-10T05:03:16;11.10;;;6.30;;
5898;SDS011;2975;50.956;6.962;2024-01-10T05:05:42;11.77;;;6.33;;
5898;SDS011;2975;50.956;6.962;2024-01-10T05:08:07;11.80;;;5.93;;
5898;SDS011;2975;50.956;6.962;2024-01-10T05:10:33;14.17;;;6.20;;
5898;SDS011;2975;50.956;6.962;2024-01-10T05:12:59;15.77;;;6.27;;
5898;SDS011;2975;50.956;6.962;2024-01-10T05:15:24;19.30;;;6.70;;
5898;SDS011;2975;50.956;6.962;2024-01-10T05:17:50;11.87;;;6.03;;
5898;SDS011;2975;50.956;6.962;2024-01-10T05:20:15;19.10;;;6.97;;
5898;SDS011;2975;50.956;6.962;2024-01-10T05:22:42;11.07;;;5.93;;
5898;SDS011;2975;50.956;6.962;2024-01-10T05:25:08;12.20;;;5.63;;
5898;SDS011;2975;50.956;6.962;2024-01-10T05:27:33;9.40;;;5.97;;
5898;SDS011;2975;50.956;6.962;2024-01-10T05:29:59;13.30;;;6.53;;
5898;SDS011;2975;50.956;6.962;2024-01-10T05:32:25;15.83;;;6.10;;
5898;SDS011;2975;50.956;6.962;2024-01-10T05:34:52;15.40;;;6.83;;
5898;SDS011;2975;50.956;6.962;2024-01-10T05:37:21;11.33;;;6.03;;
5898;SDS011;2975;50.956;6.962;2024-01-10T05:39:47;16.00;;;6.80;;
5898;SDS011;2975;50.956;6.962;2024-01-10T05:42:13;12.87;;;6.07;;
5898;SDS011;2975;50.956;6.962;2024-01-10T05:44:39;10.37;;;5.83;;
5898;SDS011;2975;50.956;6.962;2024-01-10T05:47:05;14.50;;;5.57;;
5898;SDS011;2975;50.956;6.962;2024-01-10T05:49:31;13.40;;;6.37;;
5898;SDS011;2975;50.956;6.962;2024-01-10T05:51:57;12.27;;;5.70;;
5898;SDS011;2975;50.956;6.962;2024-01-10T05:54:23;13.77;;;5.70;;
5898;SDS011;2975;50.956;6.962;2024-01-10T05:56:49;13.67;;;6.77;;
5898;SDS011;2975;50.956;6.962;2024-01-10T05:59:14;13.27;;;6.83;;
5898;SDS011;2975;50.956;6.962;2024-01-10T06:01:41;10.60;;;5.67;;
5898;SDS011;2975;50.956;6.962;2024-01-10T06:04:08;12.17;;;6.40;;
5898;SDS011;2975;50.956;6.962;2024-01-10T06:06:34;12.60;;;6.40;;
5898;SDS011;2975;50.956;6.962;2024-01-10T06:08:59;16.37;;;6.23;;
5898;SDS011;2975;50.956;6.962;2024-01-10T06:11:25;13.37;;;6.43;;
5898;SDS011;2975;50.956;6.962;2024-01-10T06:13:51;10.07;;;6.20;;
5898;SDS011;2975;50.956;6.962;2024-01-10T06:16:16;15.33;;;6.07;;
5898;SDS011;2975;50.956;6.962;2024-01-10T06:18:42;16.33;;;6.90;;
5898;SDS011;2975;50.956;6.962;2024-01-10T06:21:08;12.27;;;6.33;;
5898;SDS011;2975;50.956;6.962;2024-01-10T06:23:34;12.67;;;7.17;;
5898;SDS011;2975;50.956;6.962;2024-01-10T06:25:59;11.67;;;6.27;;
5898;SDS011;2975;50.956;6.962;2024-01-10T06:28:25;16.57;;;8.40;;
5898;SDS011;2975;50.956;6.962;2024-01-10T06:30:50;13.83;;;7.50;;
5898;SDS011;2975;50.956;6.962;2024-01-10T06:33:17;16.63;;;7.67;;
5898;SDS011;2975;50.956;6.962;2024-01-10T06:35:44;13.77;;;6.93;;
5898;SDS011;2975;50.956;6.962;2024-01-10T06:38:10;11.83;;;6.70;;
5898;SDS011;2975;50.956;6.962;2024-01-10T06:40:36;11.70;;;6.50;;
5898;SDS011;2975;50.956;6.962;2024-01-10T06:43:02;14.20;;;7.40;;
5898;SDS011;2975;50.956;6.962;2024-01-10T06:45:33;12.53;;;6.87;;
5898;SDS011;2975;50.956;6.962;2024-01-10T06:47:59;15.77;;;7.00;;
5898;SDS011;2975;50.956;6.962;2024-01-10T06:50:24;13.77;;;6.50;;
5898;SDS011;2975;50.956;6.962;2024-01-10T06:52:50;13.10;;;7.27;;
5898;SDS011;2975;50.956;6.962;2024-01-10T06:55:16;14.80;;;7.30;;
5898;SDS011;2975;50.956;6.962;2024-01-10T06:57:43;9.17;;;6.00;;
5898;SDS011;2975;50.956;6.962;2024-01-10T07:00:10;14.37;;;7.00;;
5898;SDS011;2975;50.956;6.962;2024-01-10T07:02:37;15.13;;;7.53;;
5898;SDS011;2975;50.956;6.962;2024-01-10T07:05:05;19.13;;;8.00;;
5898;SDS011;2975;50.956;6.962;2024-01-10T07:07:32;21.03;;;7.13;;
5898;SDS011;2975;50.956;6.962;2024-01-10T07:10:00;14.57;;;7.03;;
5898;SDS011;2975;50.956;6.962;2024-01-10T07:12:26;10.20;;;6.50;;
5898;SDS011;2975;50.956;6.962;2024-01-10T07:14:52;12.73;;;7.23;;
5898;SDS011;2975;50.956;6.962;2024-01-10T07:17:18;13.90;;;7.27;;
5898;SDS011;2975;50.956;6.962;2024-01-10T07:19:43;16.13;;;6.97;;
5898;SDS011;2975;50.956;6.962;2024-01-10T07:22:11;12.77;;;6.73;;
5898;SDS011;2975;50.956;6.962;2024-01-10T07:24:36;15.40;;;6.73;;
5898;SDS011;2975;50.956;6.962;2024-01-10T07:27:02;14.07;;;6.83;;
5898;SDS011;2975;50.956;6.962;2024-01-10T07:29:27;15.80;;;7.27;;
5898;SDS011;2975;50.956;6.962;2024-01-10T07:31:53;11.40;;;7.13;;
5898;SDS011;2975;50.956;6.962;2024-01-10T07:34:19;18.10;;;6.90;;
5898;SDS011;2975;50.956;6.962;2024-01-10T07:36:46;15.47;;;6.90;;
5898;SDS011;2975;50.956;6.962;2024-01-10T07:39:11;16.47;;;7.60;;
5898;SDS011;2975;50.956;6.962;2024-01-10T07:41:40;18.13;;;7.87;;
5898;SDS011;2975;50.956;6.962;2024-01-10T07:44:07;14.47;;;7.27;;
5898;SDS011;2975;50.956;6.962;2024-01-10T07:46:34;11.57;;;7.17;;
5898;SDS011;2975;50.956;6.962;2024-01-10T07:49:02;12.60;;;7.10;;
5898;SDS011;2975;50.956;6.962;2024-01-10T07:51:29;14.20;;;7.50;;
5898;SDS011;2975;50.956;6.962;2024-01-10T07:53:55;17.17;;;8.23;;
5898;SDS011;2975;50.956;6.962;2024-01-10T07:56:21;16.17;;;8.20;;
5898;SDS011;2975;50.956;6.962;2024-01-10T07:58:46;16.47;;;7.13;;
5898;SDS011;2975;50.956;6.962;2024-01-10T08:01:13;14.87;;;7.30;;
5898;SDS011;2975;50.956;6.962;2024-01-10T08:03:39;17.00;;;7.43;;
5898;SDS011;2975;50.956;6.962;2024-01-10T08:06:04;16.63;;;7.50;;
5898;SDS011;2975;50.956;6.962;2024-01-10T08:08:31;13.97;;;7.23;;
5898;SDS011;2975;50.956;6.962;2024-01-10T08:10:56;12.40;;;6.97;;
5898;SDS011;2975;50.956;6.962;2024-01-10T08:13:22;14.63;;;7.13;;
5898;SDS011;2975;50.956;6.962;2024-01-10T08:15:47;13.13;;;6.63;;
5898;SDS011;2975;50.956;6.962;2024-01-10T08:18:13;12.63;;;6.50;;
5898;SDS011;2975;50.956;6.962;2024-01-10T08:20:39;18.23;;;8.03;;
5898;SDS011;2975;50.956;6.962;2024-01-10T08:23:05;14.27;;;6.90;;
5898;SDS011;2975;50.956;6.962;2024-01-10T08:25:31;15.03;;;7.43;;
5898;SDS011;2975;50.956;6.962;2024-01-10T08:27:56;14.83;;;6.77;;
5898;SDS011;2975;50.956;6.962;2024-01-10T08:30:22;10.80;;;6.27;;
5898;SDS011;2975;50.956;6.962;2024-01-10T08:32:48;12.67;;;6.23;;
5898;SDS011;2975;50.956;6.962;2024-01-10T08:35:14;11.17;;;6.17;;
5898;SDS011;2975;50.956;6.962;2024-01-10T08:37:40;15.10;;;6.63;;
5898;SDS011;2975;50.956;6.962;2024-01-10T08:40:08;12.63;;;6.10;;
5898;SDS011;2975;50.956;6.962;2024-01-10T08:42:37;11.63;;;5.97;;
5898;SDS011;2975;50.956;6.962;2024-01-10T08:45:03;12.17;;;5.97;;
5898;SDS011;2975;50.956;6.962;2024-01-10T08:47:29;10.33;;;5.40;;
5898;SDS011;2975;50.956;6.962;2024-01-10T08:49:57;12.07;;;5.97;;
5898;SDS011;2975;50.956;6.962;2024-01-10T08:52:23;16.37;;;6.10;;
5898;SDS011;2975;50.956;6.962;2024-01-10T08:54:49;10.80;;;5.43;;
5898;SDS011;2975;50.956;6.962;2024-01-10T08:57:15;11.90;;;6.03;;
5898;SDS011;2975;50.956;6.962;2024-01-10T08:59:43;14.80;;;6.37;;
5898;SDS011;2975;50.956;6.962;2024-01-10T09:02:09;15.07;;;5.63;;
5898;SDS011;2975;50.956;6.962;2024-01-10T09:04:35;15.03;;;5.70;;
5898;SDS011;2975;50.956;6.962;2024-01-10T09:07:01;10.23;;;6.33;;
5898;SDS011;2975;50.956;6.962;2024-01-10T09:09:26;13.37;;;6.77;;
5898;SDS011;2975;50.956;6.962;2024-01-10T09:11:52;9.63;;;5.80;;
5898;SDS011;2975;50.956;6.962;2024-01-10T09:14:18;13.37;;;6.10;;
5898;SDS011;2975;50.956;6.962;2024-01-10T09:16:44;13.77;;;6.67;;
5898;SDS011;2975;50.956;6.962;2024-01-10T09:19:10;9.67;;;5.70;;
5898;SDS011;2975;50.956;6.962;2024-01-10T09:21:36;12.43;;;6.53;;
5898;SDS011;2975;50.956;6.962;2024-01-10T09:24:02;12.50;;;5.63;;
5898;SDS011;2975;50.956;6.962;2024-01-10T09:26:30;15.67;;;7.23;;
5898;SDS011;2975;50.956;6.962;2024-01-10T09:28:56;15.63;;;7.27;;
5898;SDS011;2975;50.956;6.962;2024-01-10T09:31:21;13.53;;;6.03;;
5898;SDS011;2975;50.956;6.962;2024-01-10T09:33:47;16.20;;;6.47;;
5898;SDS011;2975;50.956;6.962;2024-01-10T09:36:12;14.33;;;6.50;;
5898;SDS011;2975;50.956;6.962;2024-01-10T09:38:39;18.83;;;7.63;;
5898;SDS011;2975;50.956;6.962;2024-01-10T09:41:05;14.53;;;6.27;;
5898;SDS011;2975;50.956;6.962;2024-01-10T09:43:32;14.50;;;7.30;;
5898;SDS011;2975;50.956;6.962;2024-01-10T09:45:58;11.63;;;6.17;;
5898;SDS011;2975;50.956;6.962;2024-01-10T09:48:25;13.33;;;6.83;;
5898;SDS011;2975;50.956;6.962;2024-01-10T09:50:51;15.13;;;6.83;;
5898;SDS011;2975;50.956;6.962;2024-01-10T09:53:24;16.67;;;6.50;;
5898;SDS011;2975;50.956;6.962;2024-01-10T09:55:51;15.47;;;6.80;;
5898;SDS011;2975;50.956;6.962;2024-01-10T09:58:21;11.83;;;6.13;;
5898;SDS011;2975;50.956;6.962;2024-01-10T10:00:51;17.43;;;7.43;;
5898;SDS011;2975;50.956;6.962;2024-01-10T10:03:17;15.00;;;6.53;;
5898;SDS011;2975;50.956;6.962;2024-01-10T10:05:43;13.10;;;6.70;;
5898;SDS011;2975;50.956;6.962;2024-01-10T10:08:13;13.90;;;7.20;;
5898;SDS011;2975;50.956;6.962;2024-01-10T10:10:40;14.37;;;7.53;;
5898;SDS011;2975;50.956;6.962;2024-01-10T10:13:10;16.17;;;6.83;;
5898;SDS011;2975;50.956;6.962;2024-01-10T10:15:56;15.77;;;7.07;;
5898;SDS011;2975;50.956;6.962;2024-01-10T10:18:31;16.83;;;8.03;;
5898;SDS011;2975;50.956;6.962;2024-01-10T10:21:07;14.00;;;7.37;;
5898;SDS011;2975;50.956;6.962;2024-01-10T10:23:35;13.50;;;7.43;;
5898;SDS011;2975;50.956;6.962;2024-01-10T10:28:47;15.57;;;7.37;;
5898;SDS011;2975;50.956;6.962;2024-01-10T10:31:13;15.63;;;7.30;;
5898;SDS011;2975;50.956;6.962;2024-01-10T10:33:39;19.40;;;7.33;;
5898;SDS011;2975;50.956;6.962;2024-01-10T10:36:05;15.03;;;7.17;;
5898;SDS011;2975;50.956;6.962;2024-01-10T10:38:32;18.67;;;7.23;;
5898;SDS011;2975;50.956;6.962;2024-01-10T10:40:59;18.07;;;7.73;;
5898;SDS011;2975;50.956;6.962;2024-01-10T10:43:25;15.37;;;8.10;;
5898;SDS011;2975;50.956;6.962;2024-01-10T10:45:51;15.33;;;7.37;;
5898;SDS011;2975;50.956;6.962;2024-01-10T10:48:19;19.73;;;8.20;;
5898;SDS011;2975;50.956;6.962;2024-01-10T10:51:30;14.00;;;7.60;;
5898;SDS011;2975;50.956;6.962;2024-01-10T10:53:42;18.17;;;8.07;;
5898;SDS011;2975;50.956;6.962;2024-01-10T10:56:10;16.60;;;8.20;;
5898;SDS011;2975;50.956;6.962;2024-01-10T10:58:40;17.63;;;8.33;;
5898;SDS011;2975;50.956;6.962;2024-01-10T11:01:07;12.77;;;7.03;;
5898;SDS011;2975;50.956;6.962;2024-01-10T11:03:35;18.67;;;8.63;;
5898;SDS011;2975;50.956;6.962;2024-01-10T11:06:02;15.37;;;7.50;;
5898;SDS011;2975;50.956;6.962;2024-01-10T11:08:33;20.43;;;7.77;;
5898;SDS011;2975;50.956;6.962;2024-01-10T11:11:06;14.97;;;8.07;;
5898;SDS011;2975;50.956;6.962;2024-01-10T11:19:19;19.83;;;9.13;;
5898;SDS011;2975;50.956;6.962;2024-01-10T11:24:32;20.27;;;9.53;;
5898;SDS011;2975;50.956;6.962;2024-01-10T11:27:10;24.87;;;9.23;;
5898;SDS011;2975;50.956;6.962;2024-01-10T11:29:37;20.70;;;8.53;;
5898;SDS011;2975;50.956;6.962;2024-01-10T11:32:04;21.30;;;10.33;;
5898;SDS011;2975;50.956;6.962;2024-01-10T11:34:31;19.87;;;8.73;;
5898;SDS011;2975;50.956;6.962;2024-01-10T11:37:09;18.93;;;8.23;;
5898;SDS011;2975;50.956;6.962;2024-01-10T11:39:36;18.83;;;9.30;;
5898;SDS011;2975;50.956;6.962;2024-01-10T11:42:02;17.57;;;7.83;;
5898;SDS011;2975;50.956;6.962;2024-01-10T11:44:28;21.63;;;9.13;;
5898;SDS011;2975;50.956;6.962;2024-01-10T11:46:55;17.87;;;8.30;;
5898;SDS011;2975;50.956;6.962;2024-01-10T11:49:22;17.40;;;8.37;;
5898;SDS011;2975;50.956;6.962;2024-01-10T11:51:50;18.57;;;8.40;;
5898;SDS011;2975;50.956;6.962;2024-01-10T11:54:40;13.77;;;7.53;;
5898;SDS011;2975;50.956;6.962;2024-01-10T11:57:22;15.40;;;8.03;;
5898;SDS011;2975;50.956;6.962;2024-01-10T11:59:52;16.57;;;8.23;;
5898;SDS011;2975;50.956;6.962;2024-01-10T12:02:19;19.03;;;9.27;;
5898;SDS011;2975;50.956;6.962;2024-01-10T12:04:47;18.97;;;9.20;;
5898;SDS011;2975;50.956;6.962;2024-01-10T12:07:13;17.67;;;8.30;;
5898;SDS011;2975;50.956;6.962;2024-01-10T12:09:39;21.07;;;9.37;;
5898;SDS011;2975;50.956;6.962;2024-01-10T12:12:05;19.23;;;8.67;;
5898;SDS011;2975;50.956;6.962;2024-01-10T12:14:31;15.97;;;8.70;;
5898;SDS011;2975;50.956;6.962;2024-01-10T12:16:57;15.80;;;8.07;;
5898;SDS011;2975;50.956;6.962;2024-01-10T12:19:25;19.83;;;8.83;;
5898;SDS011;2975;50.956;6.962;2024-01-10T12:21:52;18.70;;;9.30;;
5898;SDS011;2975;50.956;6.962;2024-01-10T12:24:18;19.40;;;9.00;;
5898;SDS011;2975;50.956;6.962;2024-01-10T12:26:45;16.90;;;7.70;;
5898;SDS011;2975;50.956;6.962;2024-01-10T12:29:11;20.37;;;9.97;;
5898;SDS011;2975;50.956;6.962;2024-01-10T12:31:37;18.50;;;9.80;;
5898;SDS011;2975;50.956;6.962;2024-01-10T12:34:04;19.30;;;9.27;;
5898;SDS011;2975;50.956;6.962;2024-01-10T12:36:33;21.07;;;8.90;;
5898;SDS011;2975;50.956;6.962;2024-01-10T12:38:58;20.57;;;9.30;;
5898;SDS011;2975;50.956;6.962;2024-01-10T12:41:24;16.40;;;8.93;;
5898;SDS011;2975;50.956;6.962;2024-01-10T12:43:54;20.37;;;8.70;;
5898;SDS011;2975;50.956;6.962;2024-01-10T12:46:20;21.43;;;9.37;;
5898;SDS011;2975;50.956;6.962;2024-01-10T12:48:57;17.77;;;9.03;;
5898;SDS011;2975;50.956;6.962;2024-01-10T12:51:23;18.17;;;9.17;;
5898;SDS011;2975;50.956;6.962;2024-01-10T12:53:49;16.17;;;9.27;;
5898;SDS011;2975;50.956;6.962;2024-01-10T12:56:14;16.90;;;9.23;;
5898;SDS011;2975;50.956;6.962;2024-01-10T12:58:40;20.27;;;9.20;;
5898;SDS011;2975;50.956;6.962;2024-01-10T13:01:09;19.73;;;9.90;;
5898;SDS011;2975;50.956;6.962;2024-01-10T13:03:36;16.47;;;9.47;;
5898;SDS011;2975;50.956;6.962;2024-01-10T13:06:02;20.43;;;10.20;;
5898;SDS011;2975;50.956;6.962;2024-01-10T13:08:28;21.10;;;11.53;;
5898;SDS011;2975;50.956;6.962;2024-01-10T13:10:54;17.80;;;9.60;;
5898;SDS011;2975;50.956;6.962;2024-01-10T13:13:20;16.30;;;9.40;;
5898;SDS011;2975;50.956;6.962;2024-01-10T13:15:46;19.03;;;9.27;;
5898;SDS011;2975;50.956;6.962;2024-01-10T13:18:12;17.03;;;9.40;;
5898;SDS011;2975;50.956;6.962;2024-01-10T13:20:40;17.60;;;9.40;;
5898;SDS011;2975;50.956;6.962;2024-01-10T13:23:06;17.00;;;9.70;;
5898;SDS011;2975;50.956;6.962;2024-01-10T13:25:32;17.07;;;8.87;;
5898;SDS011;2975;50.956;6.962;2024-01-10T13:27:59;18.97;;;9.73;;
5898;SDS011;2975;50.956;6.962;2024-01-10T13:30:25;17.83;;;8.70;;
5898;SDS011;2975;50.956;6.962;2024-01-10T13:32:51;18.33;;;9.53;;
5898;SDS011;2975;50.956;6.962;2024-01-10T13:35:17;18.57;;;10.10;;
5898;SDS011;2975;50.956;6.962;2024-01-10T13:37:43;16.30;;;9.00;;
5898;SDS011;2975;50.956;6.962;2024-01-10T13:40:09;19.27;;;9.57;;
5898;SDS011;2975;50.956;6.962;2024-01-10T13:42:37;25.27;;;9.80;;
5898;SDS011;2975;50.956;6.962;2024-01-10T13:45:04;17.47;;;9.40;;
5898;SDS011;2975;50.956;6.962;2024-01-10T13:47:35;20.63;;;10.07;;
5898;SDS011;2975;50.956;6.962;2024-01-10T13:50:01;22.17;;;9.43;;
5898;SDS011;2975;50.956;6.962;2024-01-10T13:52:28;19.33;;;9.53;;
5898;SDS011;2975;50.956;6.962;2024-01-10T13:54:54;21.63;;;9.60;;
5898;SDS011;2975;50.956;6.962;2024-01-10T13:57:21;20.57;;;10.07;;
5898;SDS011;2975;50.956;6.962;2024-01-10T13:59:46;17.70;;;8.93;;
5898;SDS011;2975;50.956;6.962;2024-01-10T14:02:12;19.83;;;9.50;;
5898;SDS011;2975;50.956;6.962;2024-01-10T14:04:39;21.97;;;10.13;;
5898;SDS011;2975;50.956;6.962;2024-01-10T14:07:04;25.70;;;10.60;;
5898;SDS011;2975;50.956;6.962;2024-01-10T14:09:30;22.60;;;10.47;;
5898;SDS011;2975;50.956;6.962;2024-01-10T14:11:56;22.53;;;9.93;;
5898;SDS011;2975;50.956;6.962;2024-01-10T14:14:22;23.50;;;10.27;;
5898;SDS011;2975;50.956;6.962;2024-01-10T14:16:48;18.90;;;9.00;;
5898;SDS011;2975;50.956;6.962;2024-01-10T14:19:14;16.03;;;8.33;;
5898;SDS011;2975;50.956;6.962;2024-01-10T14:21:42;18.57;;;9.27;;
5898;SDS011;2975;50.956;6.962;2024-01-10T14:24:07;19.70;;;9.43;;
5898;SDS011;2975;50.956;6.962;2024-01-10T14:26:33;19.63;;;9.33;;
5898;SDS011;2975;50.956;6.962;2024-01-10T14:28:59;16.17;;;8.73;;
5898;SDS011;2975;50.956;6.962;2024-01-10T14:31:24;18.97;;;9.13;;
5898;SDS011;2975;50.956;6.962;2024-01-10T14:33:50;18.63;;;9.73;;
5898;SDS011;2975;50.956;6.962;2024-01-10T14:36:15;21.70;;;9.77;;
5898;SDS011;2975;50.956;6.962;2024-01-10T14:38:41;17.03;;;8.87;;
5898;SDS011;2975;50.956;6.962;2024-01-10T14:41:07;19.00;;;9.47;;
5898;SDS011;2975;50.956;6.962;2024-01-10T14:43:36;17.70;;;8.47;;
5898;SDS011;2975;50.956;6.962;2024-01-10T14:46:05;18.93;;;8.63;;
5898;SDS011;2975;50.956;6.962;2024-01-10T14:48:31;17.73;;;8.83;;
5898;SDS011;2975;50.956;6.962;2024-01-10T14:50:58;17.73;;;8.33;;
5898;SDS011;2975;50.956;6.962;2024-01-10T14:53:25;17.37;;;9.50;;
5898;SDS011;2975;50.956;6.962;2024-01-10T14:55:51;22.20;;;9.30;;
5898;SDS011;2975;50.956;6.962;2024-01-10T14:58:17;17.20;;;8.83;;
5898;SDS011;2975;50.956;6.962;2024-01-10T15:00:43;15.63;;;8.43;;
5898;SDS011;2975;50.956;6.962;2024-01-10T15:03:09;12.40;;;8.03;;
5898;SDS011;2975;50.956;6.962;2024-01-10T15:05:35;19.80;;;10.13;;
5898;SDS011;2975;50.956;6.962;2024-01-10T15:08:01;15.23;;;8.83;;
5898;SDS011;2975;50.956;6.962;2024-01-10T15:10:27;19.27;;;9.00;;